Time;durP1;ratioP1;P1;durP2;ratioP2;P2;SDS_P1;SDS_P2;PMS_P1;PMS_P2;Temp;Humidity;BMP_temperature;BMP_pressure;BME280_temperature;BME280_humidity;BME280_pressure;Samples;Min_cycle;Max_cycle;Signal;HPM_P1;HPM_P2
2022/05/14 04:22:35;;;;;;;5.90;3.33;;;;;;;7.69;100.00;100758.78;5069117;28;20160;-76
2022/05/14 04:25:02;;;;;;;6.60;3.40;;;;;;;7.75;100.00;100760.06;5067635;28;20127;-75
2022/05/14 04:27:28;;;;;;;7.07;3.17;;;;;;;7.71;100.00;100767.47;5067595;28;20090;-75
2022/05/14 04:29:54;;;;;;;6.32;3.72;;;;;;;7.77;100.00;100763.41;5067554;28;20037;-76
2022/05/14 04:32:19;;;;;;;4.75;3.80;;;;;;;7.78;100.00;100757.97;5067875;28;20037;-77
2022/05/14 04:34:45;;;;;;;6.35;3.45;;;;;;;7.81;100.00;100762.97;5067721;28;20627;-77
2022/05/14 04:37:12;;;;;;;7.13;3.22;;;;;;;7.96;100.00;100767.84;5051016;28;20455;-77
2022/05/14 04:39:39;;;;;;;7.13;2.97;;;;;;;8.01;100.00;100773.53;5067568;28;20044;-76
2022/05/14 04:42:08;;;;;;;4.47;3.15;;;;;;;8.07;100.00;100775.63;5067131;28;20378;-75
2022/05/14 04:44:36;;;;;;;6.50;4.05;;;;;;;8.10;100.00;100783.31;5067375;28;20029;-75
2022/05/14 04:47:02;;;;;;;10.63;3.63;;;;;;;8.08;100.00;100778.13;5067160;28;20036;-76
2022/05/14 04:49:29;;;;;;;15.27;8.38;;;;;;;8.17;100.00;100784.38;5067297;28;20517;-75
2022/05/14 04:51:55;;;;;;;6.10;3.85;;;;;;;8.22;100.00;100786.63;5066996;28;20033;-75
2022/05/14 04:54:21;;;;;;;7.75;3.90;;;;;;;8.31;100.00;100788.41;5067108;28;20056;-76
2022/05/14 04:56:47;;;;;;;18.98;11.63;;;;;;;8.42;100.00;100791.75;5067306;28;20060;-76
2022/05/14 04:59:13;;;;;;;26.50;14.15;;;;;;;8.49;100.00;100788.50;5067094;28;20036;-75
2022/05/14 05:03:16;;;;;;;22.02;10.35;;;;;;;8.60;100.00;100790.94;5066854;28;20041;-76
2022/05/14 05:04:25;;;;;;;20.05;10.27;;;;;;;8.73;100.00;100786.13;5066925;28;20052;-76
2022/05/14 05:06:51;;;;;;;26.33;13.27;;;;;;;8.85;100.00;100784.09;5067073;28;20501;-75
2022/05/14 05:09:17;;;;;;;7.68;4.10;;;;;;;8.92;100.00;100791.31;5068193;28;20041;-75
2022/05/14 05:11:42;;;;;;;7.35;3.47;;;;;;;9.02;99.85;100796.59;5068143;28;20044;-76
2022/05/14 05:14:08;;;;;;;15.27;7.70;;;;;;;9.16;99.37;100784.59;5068379;28;20037;-76
2022/05/14 05:16:35;;;;;;;14.55;8.68;;;;;;;9.38;100.00;100788.63;5066985;28;20122;-75
2022/05/14 05:19:01;;;;;;;15.43;9.93;;;;;;;9.55;99.45;100797.59;5068220;28;20044;-76
2022/05/14 05:21:26;;;;;;;13.55;7.88;;;;;;;9.71;98.47;100792.41;5066468;28;20041;-75
2022/05/14 05:23:52;;;;;;;12.05;7.03;;;;;;;9.85;99.02;100801.69;5067649;28;20044;-75
2022/05/14 05:26:17;;;;;;;12.18;6.40;;;;;;;9.94;98.75;100798.06;5067622;28;20111;-76
2022/05/14 05:28:43;;;;;;;15.85;8.35;;;;;;;10.02;97.84;100800.78;5067839;28;20036;-75
2022/05/14 05:31:08;;;;;;;10.15;5.90;;;;;;;10.11;98.02;100796.38;5066552;28;20033;-76
2022/05/14 05:33:34;;;;;;;10.55;6.30;;;;;;;10.20;98.29;100798.91;5056255;28;20124;-76
2022/05/14 05:35:59;;;;;;;6.70;3.97;;;;;;;10.30;96.24;100802.34;5054278;28;20037;-76
2022/05/14 05:38:25;;;;;;;5.50;3.20;;;;;;;10.37;94.87;100805.22;5054357;28;20121;-75
2022/05/14 05:40:52;;;;;;;12.77;4.57;;;;;;;10.47;95.09;100811.22;5054153;28;20044;-76
2022/05/14 05:43:17;;;;;;;5.85;2.92;;;;;;;10.58;93.90;100805.63;5054098;28;20033;-76
2022/05/14 05:45:46;;;;;;;4.80;3.40;;;;;;;10.62;94.61;100803.47;5053084;28;20044;-75
2022/05/14 05:48:13;;;;;;;8.50;2.90;;;;;;;10.70;89.49;100816.84;5053214;28;20099;-75
2022/05/14 05:50:38;;;;;;;6.28;2.83;;;;;;;10.79;87.91;100809.72;5054178;28;20061;-76
2022/05/14 05:53:05;;;;;;;5.65;2.72;;;;;;;10.86;87.32;100800.91;5052429;28;20076;-76
2022/05/14 05:58:19;;;;;;;4.60;2.63;;;;;;;11.08;86.47;100799.50;5054154;28;20041;-76
2022/05/14 06:00:45;;;;;;;3.42;2.35;;;;;;;11.18;86.80;100804.66;5052786;28;20040;-76
2022/05/14 06:03:11;;;;;;;7.65;2.90;;;;;;;11.26;87.41;100799.34;5054128;28;20033;-77
2022/05/14 06:05:38;;;;;;;4.07;2.22;;;;;;;11.47;84.05;100809.53;5054172;28;20111;-77
2022/05/14 06:08:12;;;;;;;7.10;2.20;;;;;;;11.66;82.87;100798.53;5054652;28;20033;-78
2022/05/14 06:10:38;;;;;;;3.78;2.30;;;;;;;11.92;82.40;100808.22;5054195;28;20033;-78
2022/05/14 06:13:05;;;;;;;2.97;1.83;;;;;;;12.00;81.18;100808.25;5054295;28;20191;-77
2022/05/14 06:15:31;;;;;;;7.88;2.40;;;;;;;12.09;80.43;100809.06;5054563;28;20437;-77
2022/05/14 06:18:04;;;;;;;3.78;1.98;;;;;;;12.34;78.95;100807.19;5054180;28;20069;-76
2022/05/14 06:20:30;;;;;;;4.93;2.17;;;;;;;12.47;79.37;100810.97;5053708;28;20040;-76
2022/05/14 06:22:56;;;;;;;6.88;2.20;;;;;;;12.57;79.58;100809.94;5051953;28;20546;-76
2022/05/14 06:25:22;;;;;;;3.15;2.35;;;;;;;12.62;79.14;100808.41;5052232;28;20048;-76
2022/05/14 06:27:47;;;;;;;4.15;2.53;;;;;;;12.76;79.65;100812.19;5053653;28;20083;-75
2022/05/14 06:30:13;;;;;;;3.03;2.03;;;;;;;12.96;79.16;100810.75;5053653;28;20047;-77
2022/05/14 06:32:39;;;;;;;4.63;2.42;;;;;;;13.16;77.78;100813.81;5053204;28;20123;-76
2022/05/14 06:35:07;;;;;;;7.03;2.33;;;;;;;13.22;78.27;100813.16;5053503;28;20083;-76
2022/05/14 06:37:33;;;;;;;3.60;2.38;;;;;;;13.28;78.57;100816.97;5053288;28;20041;-76
2022/05/14 06:39:58;;;;;;;3.70;2.05;;;;;;;13.42;77.64;100818.03;5052085;28;20067;-76
2022/05/14 06:42:24;;;;;;;3.05;1.80;;;;;;;13.53;75.82;100810.44;5052951;28;20075;-76
2022/05/14 06:44:49;;;;;;;6.80;1.95;;;;;;;13.79;72.41;100820.78;5052190;28;20033;-77
2022/05/14 06:47:15;;;;;;;4.75;2.10;;;;;;;13.90;72.62;100824.03;5052947;28;20397;-76
2022/05/14 06:49:41;;;;;;;4.60;1.90;;;;;;;14.07;71.60;100822.88;5053099;28;20040;-76
2022/05/14 06:52:10;;;;;;;4.47;2.00;;;;;;;14.09;72.01;100821.69;5052790;28;20037;-76
2022/05/14 06:54:38;;;;;;;4.28;2.03;;;;;;;14.25;71.22;100826.03;5053237;28;20041;-75
2022/05/14 06:57:04;;;;;;;3.08;1.60;;;;;;;14.35;71.44;100821.25;5051725;28;20060;-75
2022/05/14 06:59:32;;;;;;;4.53;1.90;;;;;;;14.39;70.95;100822.53;5052748;28;20632;-75
2022/05/14 07:01:58;;;;;;;4.35;2.00;;;;;;;14.53;71.36;100822.75;5052440;28;20147;-76
2022/05/14 07:07:08;;;;;;;5.32;2.22;;;;;;;14.73;69.56;100829.22;5052551;28;20494;-75
2022/05/14 07:09:34;;;;;;;3.60;2.00;;;;;;;14.87;69.34;100833.75;5052937;28;20061;-73
2022/05/14 07:12:04;;;;;;;5.20;2.00;;;;;;;14.96;70.66;100830.97;5052847;28;20048;-76
2022/05/14 07:14:32;;;;;;;4.93;2.03;;;;;;;15.02;69.19;100830.22;5052420;28;20041;-75
2022/05/14 07:16:58;;;;;;;6.28;1.95;;;;;;;15.29;68.25;100828.66;5052560;28;20025;-76
2022/05/14 07:19:23;;;;;;;4.68;1.70;;;;;;;15.35;66.85;100825.22;5051391;28;20484;-75
2022/05/14 07:21:51;;;;;;;6.88;2.10;;;;;;;15.52;66.48;100831.16;5051982;28;20033;-75
2022/05/14 07:24:20;;;;;;;3.72;2.20;;;;;;;15.65;65.48;100828.66;5052678;28;20082;-75
2022/05/14 07:26:46;;;;;;;4.75;1.73;;;;;;;15.76;63.88;100816.53;5052668;28;20428;-76
2022/05/14 07:29:15;;;;;;;3.83;1.70;;;;;;;15.77;64.35;100813.66;5052183;28;20040;-76
2022/05/14 07:31:41;;;;;;;3.55;1.70;;;;;;;15.88;63.38;100809.63;5052099;28;20051;-75
2022/05/14 07:34:07;;;;;;;5.53;1.70;;;;;;;16.06;62.80;100828.81;5052385;28;20494;-75
2022/05/14 07:36:42;;;;;;;5.03;1.90;;;;;;;16.04;62.09;100816.56;5051975;28;20071;-75
2022/05/14 07:39:08;;;;;;;3.65;1.58;;;;;;;16.17;62.46;100817.53;5052311;28;20029;-74
2022/05/14 07:41:38;;;;;;;6.20;2.05;;;;;;;16.21;62.75;100821.47;5051791;28;20071;-76
2022/05/14 07:44:06;;;;;;;3.08;1.83;;;;;;;16.34;62.23;100825.28;5052049;28;20082;-75
2022/05/14 07:46:34;;;;;;;7.53;1.95;;;;;;;16.37;61.68;100822.19;5052016;28;20025;-75
2022/05/14 07:49:00;;;;;;;5.22;1.65;;;;;;;16.37;61.93;100817.66;5052142;28;20058;-74
2022/05/14 07:51:27;;;;;;;4.75;2.20;;;;;;;16.51;62.81;100826.63;5050443;28;20516;-75
2022/05/14 07:53:53;;;;;;;3.28;1.70;;;;;;;16.57;62.71;100823.16;5051676;28;20052;-75
2022/05/14 07:56:18;;;;;;;4.13;1.80;;;;;;;16.64;61.23;100825.88;5051445;28;20048;-75
2022/05/14 07:58:46;;;;;;;4.43;2.00;;;;;;;16.76;62.46;100829.69;5052154;28;20029;-78
2022/05/14 08:01:12;;;;;;;3.55;1.73;;;;;;;16.85;62.50;100825.78;5051082;28;20060;-77
2022/05/14 08:03:37;;;;;;;4.70;2.13;;;;;;;17.01;62.51;100820.03;5050401;28;20592;-78
2022/05/14 08:06:04;;;;;;;3.85;1.92;;;;;;;17.11;61.44;100818.84;5051740;28;20029;-81
2022/05/14 08:08:30;;;;;;;5.93;1.90;;;;;;;17.24;60.24;100821.59;5054965;28;20091;-80
2022/05/14 08:10:56;;;;;;;5.38;2.05;;;;;;;17.45;57.34;100816.03;5053954;28;20086;-80
2022/05/14 08:13:23;;;;;;;5.63;2.10;;;;;;;17.68;58.23;100818.38;5054118;28;20454;-80
2022/05/14 08:15:50;;;;;;;2.40;1.52;;;;;;;17.73;58.64;100806.97;5056104;28;20033;-82
2022/05/14 08:18:16;;;;;;;10.98;1.80;;;;;;;17.86;57.26;100815.06;5053899;28;20087;-80
2022/05/14 08:20:43;;;;;;;4.53;1.60;;;;;;;17.98;55.43;100818.78;5054095;28;20485;-80
2022/05/14 08:25:56;;;;;;;3.63;1.85;;;;;;;18.25;55.31;100811.50;5050333;28;20490;-77
2022/05/14 08:28:22;;;;;;;5.50;1.70;;;;;;;18.53;54.74;100811.25;5050359;28;20036;-77
2022/05/14 08:30:47;;;;;;;6.03;1.65;;;;;;;18.59;53.59;100805.03;5051722;28;20540;-77
2022/05/14 08:33:13;;;;;;;2.25;1.50;;;;;;;18.66;54.59;100803.16;5049864;28;20474;-77
2022/05/14 08:35:39;;;;;;;7.68;1.60;;;;;;;18.82;54.60;100812.63;5051191;28;20045;-76
2022/05/14 08:38:08;;;;;;;5.28;1.73;;;;;;;18.94;52.84;100808.22;5051382;28;20136;-77
2022/05/14 08:40:42;;;;;;;6.88;1.85;;;;;;;19.07;52.60;100798.41;5033475;28;20461;-77
2022/05/14 08:43:22;;;;;;;5.25;1.98;;;;;;;19.22;52.90;100791.66;5033286;28;20616;-76
2022/05/14 08:45:48;;;;;;;6.55;2.25;;;;;;;19.35;53.17;100798.03;5049951;28;20409;-76
2022/05/14 08:48:24;;;;;;;7.93;2.22;;;;;;;19.48;52.28;100796.06;5051231;28;20431;-76
2022/05/14 08:51:03;;;;;;;3.70;1.90;;;;;;;19.62;53.60;100796.00;5051295;28;20034;-75
2022/05/14 08:53:30;;;;;;;3.28;1.52;;;;;;;19.60;51.24;100790.84;5050949;28;20032;-76
2022/05/14 08:56:20;;;;;;;3.05;1.55;;;;;;;19.89;51.82;100796.66;5049771;28;20045;-75
2022/05/14 08:59:15;;;;;;;3.80;1.63;;;;;;;20.06;51.38;100805.84;5051266;28;20491;-75
2022/05/14 09:01:43;;;;;;;6.18;2.28;;;;;;;20.16;51.01;100800.78;5051219;28;20099;-75
2022/05/14 09:04:11;;;;;;;3.13;1.92;;;;;;;20.32;50.94;100802.88;5051081;28;20098;-76
2022/05/14 09:06:38;;;;;;;8.00;2.65;;;;;;;20.40;50.12;100795.53;5049613;28;20590;-76
2022/05/14 09:09:06;;;;;;;4.63;1.88;;;;;;;20.59;49.75;100795.31;5054382;28;20037;-75
2022/05/14 09:11:59;;;;;;;7.97;2.42;;;;;;;20.54;48.28;100799.78;5055222;28;20367;-76
2022/05/14 09:14:27;;;;;;;4.70;1.58;;;;;;;20.78;49.70;100801.56;5054589;28;20113;-75
2022/05/14 09:17:22;;;;;;;;;;;;;;;20.78;48.70;100796.16;5055100;28;20040;-74
2022/05/14 09:19:50;;;;;;;4.70;1.75;;;;;;;21.01;49.15;100784.63;5053963;28;19966;-74
2022/05/14 09:22:36;;;;;;;4.60;1.98;;;;;;;21.16;45.06;100781.50;5054252;28;20040;-74
2022/05/14 09:25:05;;;;;;;2.55;1.63;;;;;;;21.36;46.17;100783.94;5054682;28;20032;-75
2022/05/14 09:28:00;;;;;;;2.58;1.48;;;;;;;21.37;47.09;100781.00;5054372;28;20098;-75
2022/05/14 09:30:35;;;;;;;3.95;1.60;;;;;;;21.85;44.96;100774.63;5054452;28;20048;-75
2022/05/14 09:33:02;;;;;;;4.30;1.60;;;;;;;22.05;44.84;100778.88;5054091;28;20505;-75
2022/05/14 09:35:32;;;;;;;3.50;1.67;;;;;;;22.26;42.79;100789.16;5054349;28;20051;-75
2022/05/14 09:38:18;;;;;;;3.92;1.90;;;;;;;22.25;44.91;100789.41;5053162;28;20561;-75
2022/05/14 09:40:45;;;;;;;5.68;1.60;;;;;;;22.43;43.75;100779.22;5054061;28;20033;-76
2022/05/14 09:43:20;;;;;;;2.03;1.50;;;;;;;22.46;42.76;100781.44;5054044;28;20029;-75
2022/05/14 09:46:23;;;;;;;4.75;1.60;;;;;;;22.75;40.94;100778.78;5054249;28;20457;-75
2022/05/14 09:48:53;;;;;;;6.85;1.55;;;;;;;23.01;40.55;100778.25;5056375;28;20401;-76
2022/05/14 09:51:29;;;;;;;2.85;1.30;;;;;;;23.24;40.08;100774.59;5053884;28;20056;-76
2022/05/14 09:53:55;;;;;;;5.00;1.30;;;;;;;23.06;39.25;100776.69;5053802;28;20040;-76
2022/05/14 09:56:34;;;;;;;3.92;1.65;;;;;;;23.63;38.80;100763.06;5053908;28;20039;-76
2022/05/14 09:59:30;;;;;;;5.47;1.42;;;;;;;23.55;37.61;100767.00;5053856;28;20039;-75
2022/05/14 10:02:11;;;;;;;5.43;1.40;;;;;;;24.10;37.74;100772.50;5053592;28;20067;-75
2022/05/14 10:05:16;;;;;;;2.03;1.38;;;;;;;23.77;33.07;100764.38;5052483;28;20041;-75
2022/05/14 10:08:21;;;;;;;2.87;1.67;;;;;;;24.40;34.93;100763.16;5053280;28;20048;-75
2022/05/14 10:11:00;;;;;;;4.00;1.63;;;;;;;24.42;34.79;100761.00;5053519;28;20470;-75
2022/05/14 10:13:41;;;;;;;3.15;1.25;;;;;;;25.12;36.44;100760.22;5053345;28;20564;-75
2022/05/14 10:16:18;;;;;;;2.95;1.42;;;;;;;24.96;34.47;100752.09;5053570;28;20032;-75
2022/05/14 10:19:03;;;;;;;3.20;1.20;;;;;;;25.20;34.77;100758.09;5053401;28;20044;-75
2022/05/14 10:22:08;;;;;;;2.40;1.30;;;;;;;25.81;32.84;100745.00;5053728;28;20047;-75
2022/05/14 10:27:59;;;;;;;2.45;1.17;;;;;;;26.03;31.81;100748.44;5053190;28;20119;-76
2022/05/14 10:30:30;;;;;;;2.75;0.93;;;;;;;26.40;31.21;100739.38;5053598;28;20500;-75
2022/05/14 10:33:01;;;;;;;3.38;1.13;;;;;;;26.62;30.16;100744.66;5053077;28;20044;-76
2022/05/14 10:35:50;;;;;;;3.65;1.48;;;;;;;27.07;30.46;100741.28;5053350;28;20119;-76
2022/05/14 10:38:30;;;;;;;2.90;1.10;;;;;;;27.38;27.09;100736.63;5053190;28;20505;-76
2022/05/14 10:41:01;;;;;;;2.05;1.10;;;;;;;27.08;26.66;100736.63;5053331;28;20033;-76
2022/05/14 10:44:02;;;;;;;1.98;0.98;;;;;;;27.29;26.84;100730.91;5052864;28;20052;-76
2022/05/14 10:46:32;;;;;;;3.42;1.15;;;;;;;27.38;32.26;100733.91;5052881;28;20036;-75
2022/05/14 10:49:15;;;;;;;2.85;1.10;;;;;;;27.04;25.94;100736.28;5053015;28;20033;-76
2022/05/14 10:51:46;;;;;;;3.65;1.23;;;;;;;26.58;26.40;100727.97;5053011;28;20090;-74
2022/05/14 10:54:15;;;;;;;1.80;0.98;;;;;;;27.10;27.83;100737.16;5053077;28;20503;-76
2022/05/14 10:56:53;;;;;;;3.38;1.35;;;;;;;27.81;25.72;100723.50;5052812;28;20040;-76
2022/05/14 10:59:38;;;;;;;3.25;1.10;;;;;;;27.61;28.26;100720.78;5051365;28;20047;-76
2022/05/14 11:02:28;;;;;;;1.35;0.95;;;;;;;27.47;27.68;100720.50;5051279;28;20482;-76
2022/05/14 11:04:54;;;;;;;4.68;1.40;;;;;;;28.05;26.82;100707.31;5052201;28;20565;-75
2022/05/14 11:07:42;;;;;;;3.00;1.03;;;;;;;27.80;26.79;100711.75;5052650;28;20074;-75
2022/05/14 11:10:19;;;;;;;1.73;0.95;;;;;;;28.74;26.82;100702.91;5052785;28;20333;-75
2022/05/14 11:12:46;;;;;;;5.30;2.50;;;;;;;29.11;25.29;100705.19;5051006;28;20068;-76
2022/05/14 11:15:24;;;;;;;3.13;1.50;;;;;;;29.10;24.21;100701.63;5052288;28;20067;-76
2022/05/14 11:18:02;;;;;;;4.63;1.75;;;;;;;29.04;23.85;100702.75;5052389;28;20044;-75
2022/05/14 11:20:27;;;;;;;3.58;1.55;;;;;;;29.73;24.76;100704.41;5052323;28;20047;-74
2022/05/14 11:23:05;;;;;;;2.13;1.40;;;;;;;30.03;23.51;100707.09;5052204;28;20028;-75
2022/05/14 11:25:30;;;;;;;2.50;1.35;;;;;;;29.60;25.03;100710.53;5052342;28;20029;-75
2022/05/14 11:28:11;;;;;;;4.95;2.10;;;;;;;30.21;22.99;100709.13;5052296;28;20478;-75
2022/05/14 11:30:44;;;;;;;4.13;2.30;;;;;;;30.45;22.62;100698.94;5051573;28;20116;-75
2022/05/14 11:33:24;;;;;;;2.85;1.05;;;;;;;30.20;21.63;100707.50;5052103;28;20059;-75
2022/05/14 11:35:52;;;;;;;2.33;0.77;;;;;;;29.77;20.87;100709.31;5051969;28;20037;-74
2022/05/14 11:38:23;;;;;;;3.47;1.40;;;;;;;29.83;20.35;100706.22;5052095;28;20582;-74
2022/05/14 11:41:05;;;;;;;3.22;1.67;;;;;;;30.79;21.06;100697.94;5052100;28;20048;-74
2022/05/14 11:43:33;;;;;;;1.48;1.13;;;;;;;30.47;20.19;100699.44;5051738;28;20059;-74
2022/05/14 11:46:09;;;;;;;3.53;1.30;;;;;;;30.60;22.25;100697.09;5051886;28;20039;-75
2022/05/14 11:49:03;;;;;;;1.60;0.85;;;;;;;30.18;22.91;100685.78;5051921;28;20033;-75
2022/05/14 11:51:50;;;;;;;2.90;1.45;;;;;;;29.96;21.10;100680.81;5051530;28;20051;-75
2022/05/14 11:54:24;;;;;;;3.05;1.13;;;;;;;29.72;23.70;100688.19;5051854;28;20033;-74
2022/05/14 11:57:07;;;;;;;2.78;1.17;;;;;;;29.43;23.18;100677.22;5051657;28;20033;-74
2022/05/14 11:59:59;;;;;;;2.03;0.98;;;;;;;28.95;21.89;100684.44;5051775;28;20307;-74
2022/05/14 12:02:38;;;;;;;1.45;0.88;;;;;;;30.04;20.57;100679.34;5051330;28;20025;-75
2022/05/14 12:05:12;;;;;;;1.77;0.90;;;;;;;30.30;21.55;100679.06;5050433;28;20168;-75
2022/05/14 12:08:05;;;;;;;2.22;0.85;;;;;;;30.05;21.85;100686.47;5050395;28;20071;-75
2022/05/14 12:10:52;;;;;;;4.60;1.10;;;;;;;29.61;21.45;100679.28;5051549;28;20044;-75
2022/05/14 12:13:38;;;;;;;2.80;1.15;;;;;;;30.21;23.13;100684.41;5050202;28;20059;-74
2022/05/14 12:16:04;;;;;;;4.57;1.30;;;;;;;29.84;22.30;100672.16;5051470;28;20037;-74
2022/05/14 12:18:32;;;;;;;2.50;1.08;;;;;;;30.16;20.54;100668.78;5051544;28;20037;-75
2022/05/14 12:21:00;;;;;;;2.80;1.30;;;;;;;29.46;21.16;100666.47;5051349;28;20029;-75
2022/05/14 12:23:44;;;;;;;3.20;1.10;;;;;;;29.87;22.91;100663.34;5051185;28;20573;-73
2022/05/14 12:26:32;;;;;;;6.40;1.33;;;;;;;29.28;24.81;100658.97;5051341;28;20047;-74
2022/05/14 12:29:00;;;;;;;2.08;1.10;;;;;;;30.13;24.59;100660.34;5051620;28;20044;-75
2022/05/14 12:34:10;;;;;;;4.00;1.30;;;;;;;29.41;24.40;100654.75;5051368;28;20033;-74
2022/05/14 12:36:51;;;;;;;4.20;1.30;;;;;;;29.80;23.79;100654.66;5051281;28;20044;-73
2022/05/14 12:39:29;;;;;;;2.75;1.25;;;;;;;29.85;25.18;100657.31;5051243;28;20474;-74
2022/05/14 12:42:05;;;;;;;4.45;1.52;;;;;;;30.84;21.74;100651.09;5050921;28;20032;-74
2022/05/14 12:44:41;;;;;;;2.60;1.00;;;;;;;31.33;21.72;100639.59;5053974;28;20147;-73
2022/05/14 12:47:08;;;;;;;4.35;1.13;;;;;;;31.08;22.14;100640.81;5055150;28;20128;-74
2022/05/14 12:49:45;;;;;;;2.95;1.00;;;;;;;30.67;22.20;100645.31;5053904;28;20045;-74
2022/05/14 12:52:32;;;;;;;6.50;1.40;;;;;;;31.90;21.04;100633.88;5054781;28;20588;-74
2022/05/14 12:55:25;;;;;;;3.17;1.27;;;;;;;31.73;20.80;100637.19;5055139;28;20521;-75
2022/05/14 12:57:52;;;;;;;3.95;1.55;;;;;;;32.24;20.50;100630.69;5054805;28;20089;-75
2022/05/14 13:00:21;;;;;;;3.60;1.20;;;;;;;31.98;21.19;100624.91;5054803;28;20537;-75
2022/05/14 13:02:58;;;;;;;2.78;1.10;;;;;;;31.42;21.83;100628.69;5054575;28;20025;-75
2022/05/14 13:05:40;;;;;;;3.65;1.10;;;;;;;31.96;20.18;100618.06;5037091;28;20052;-75
2022/05/14 13:08:15;;;;;;;5.03;1.20;;;;;;;31.02;20.53;100614.50;5054866;28;20171;-75
2022/05/14 13:10:47;;;;;;;2.58;1.40;;;;;;;30.92;22.08;100611.94;5053461;28;20041;-76
2022/05/14 13:13:15;;;;;;;6.28;2.28;;;;;;;31.55;20.58;100607.81;5053225;28;20120;-75
2022/05/14 13:15:45;;;;;;;4.20;1.25;;;;;;;30.90;21.18;100607.84;5053378;28;20037;-74
2022/05/14 13:18:23;;;;;;;2.80;2.10;;;;;;;31.14;22.64;100594.78;5055259;28;20044;-77
2022/05/14 13:20:58;;;;;;;3.50;2.10;;;;;;;29.93;23.84;100603.69;5054617;28;20025;-77
2022/05/14 13:23:23;;;;;;;3.90;1.75;;;;;;;29.63;23.42;100602.13;5033680;28;20041;-77
2022/05/14 13:26:02;;;;;;;6.47;2.08;;;;;;;29.65;23.18;100597.97;5053376;28;20574;-78
2022/05/14 13:28:37;;;;;;;3.45;1.10;;;;;;;28.74;21.95;100585.88;5054120;28;20032;-77
2022/05/14 13:31:16;;;;;;;3.53;1.75;;;;;;;28.14;24.89;100585.16;5054191;28;20033;-78
2022/05/14 13:33:42;;;;;;;2.70;1.13;;;;;;;27.41;22.05;100587.59;5054394;28;20047;-76
2022/05/14 13:39:03;;;;;;;2.88;1.95;;;;;;;28.07;25.04;100581.91;5056440;28;20078;-75
2022/05/14 13:41:36;;;;;;;5.05;1.75;;;;;;;27.77;27.24;100589.13;5036196;28;20037;-75
2022/05/14 13:44:04;;;;;;;3.60;1.92;;;;;;;27.27;29.12;100588.16;5054003;28;20037;-78
2022/05/14 13:46:35;;;;;;;4.60;2.67;;;;;;;27.28;28.89;100581.59;5036980;28;20386;-78
2022/05/14 13:49:03;;;;;;;3.65;1.92;;;;;;;27.04;28.52;100575.03;5055345;28;20033;-76
2022/05/14 13:51:36;;;;;;;3.78;1.58;;;;;;;26.40;30.06;100572.78;5051842;28;20041;-78
2022/05/14 13:54:27;;;;;;;1.83;1.27;;;;;;;26.81;26.46;100572.84;5033558;28;20052;-78
2022/05/14 13:57:04;;;;;;;3.08;1.33;;;;;;;26.33;26.24;100559.38;5036488;28;20033;-78
2022/05/14 13:59:35;;;;;;;3.10;1.60;;;;;;;26.52;26.37;100552.31;5034498;28;20545;-78
2022/05/14 14:02:13;;;;;;;3.55;1.60;;;;;;;26.74;27.15;100552.09;5033602;28;20037;-77
2022/05/14 14:04:41;;;;;;;3.85;1.52;;;;;;;26.12;26.85;100552.22;5034589;28;20387;-76
2022/05/14 14:07:08;;;;;;;3.33;1.20;;;;;;;26.19;25.63;100539.97;5016599;28;20188;-77
2022/05/14 14:09:36;;;;;;;3.83;1.63;;;;;;;26.12;27.80;100549.50;5034655;28;20079;-79
2022/05/14 14:12:02;;;;;;;3.88;1.40;;;;;;;25.56;26.69;100546.50;5033890;28;20048;-80
2022/05/14 14:14:27;;;;;;;4.22;1.50;;;;;;;25.85;28.44;100536.03;5035705;28;20128;-79
2022/05/14 14:16:53;;;;;;;3.50;1.40;;;;;;;25.84;26.67;100531.69;5035206;28;20033;-78
2022/05/14 14:19:18;;;;;;;4.20;1.45;;;;;;;26.16;26.04;100529.59;5033503;28;20048;-78
2022/05/14 14:21:45;;;;;;;2.30;1.50;;;;;;;26.17;27.43;100533.13;5036545;28;20047;-78
2022/05/14 14:24:15;;;;;;;4.70;2.03;;;;;;;26.09;28.93;100529.03;5054628;28;20029;-77
2022/05/14 14:26:46;;;;;;;4.72;1.80;;;;;;;26.13;27.91;100524.66;5052671;28;20045;-75
2022/05/14 14:29:11;;;;;;;4.97;1.67;;;;;;;25.71;29.23;100525.59;5053454;28;20112;-74
2022/05/14 14:31:37;;;;;;;4.50;1.98;;;;;;;25.95;29.52;100534.19;5051851;28;20040;-75
2022/05/14 14:34:03;;;;;;;4.68;1.67;;;;;;;25.52;29.46;100527.16;5051718;28;20037;-73
2022/05/14 14:36:29;;;;;;;4.00;1.80;;;;;;;25.59;29.61;100519.53;5053113;28;20504;-75
2022/05/14 14:38:55;;;;;;;3.83;1.48;;;;;;;25.98;28.77;100516.44;5053412;28;20095;-74
2022/05/14 14:41:21;;;;;;;3.50;1.60;;;;;;;25.98;29.27;100521.91;5051625;28;20663;-74
2022/05/14 14:43:48;;;;;;;3.10;1.90;;;;;;;25.76;30.07;100521.28;5051055;28;20051;-75
2022/05/14 14:46:14;;;;;;;2.45;1.60;;;;;;;25.82;28.71;100509.28;5053307;28;20406;-78
2022/05/14 14:48:41;;;;;;;3.50;1.30;;;;;;;25.78;30.14;100517.19;5053621;28;20037;-77
2022/05/14 14:51:10;;;;;;;11.35;2.63;;;;;;;25.73;29.75;100514.44;5054821;28;20120;-76
2022/05/14 14:53:36;;;;;;;4.32;1.75;;;;;;;25.68;29.09;100517.94;5054581;28;20036;-77
2022/05/14 14:56:03;;;;;;;4.97;2.00;;;;;;;25.46;29.17;100509.13;5052045;28;20090;-77
2022/05/14 14:58:29;;;;;;;4.35;1.58;;;;;;;25.13;27.51;100505.66;5053041;28;20287;-75
2022/05/14 15:00:55;;;;;;;7.13;1.60;;;;;;;25.16;28.55;100507.03;5051864;28;20037;-78
2022/05/14 15:03:31;;;;;;;3.60;1.50;;;;;;;25.28;28.12;100506.84;5052643;28;20393;-75
2022/05/14 15:05:59;;;;;;;2.92;1.58;;;;;;;25.24;28.72;100508.47;5052473;28;20040;-76
2022/05/14 15:08:30;;;;;;;5.40;1.40;;;;;;;25.48;27.94;100509.66;5052622;28;20029;-76
2022/05/14 15:10:56;;;;;;;8.32;1.55;;;;;;;25.49;28.32;100507.75;5052518;28;20040;-75
2022/05/14 15:13:25;;;;;;;5.15;2.33;;;;;;;25.26;28.71;100506.28;5052473;28;20406;-74
2022/05/14 15:15:51;;;;;;;8.90;4.47;;;;;;;25.35;28.88;100505.50;5051123;28;20032;-73
2022/05/14 15:18:19;;;;;;;4.90;2.33;;;;;;;25.23;28.08;100499.44;5052664;28;20045;-74
2022/05/14 15:20:47;;;;;;;3.95;1.85;;;;;;;25.19;27.64;100501.06;5035956;28;20047;-74
2022/05/14 15:23:13;;;;;;;2.65;1.77;;;;;;;25.19;27.43;100503.81;5051190;28;20044;-74
2022/05/14 15:25:39;;;;;;;4.55;1.60;;;;;;;25.04;27.13;100496.34;5052409;28;20029;-75
2022/05/14 15:28:05;;;;;;;5.53;2.58;;;;;;;24.89;27.18;100502.47;5052332;28;20486;-75
2022/05/14 15:30:32;;;;;;;5.18;2.30;;;;;;;25.11;26.30;100507.84;5050870;28;20086;-75
2022/05/14 15:32:59;;;;;;;2.88;1.55;;;;;;;25.18;28.09;100502.16;5034057;28;20067;-73
2022/05/14 15:35:29;;;;;;;7.75;1.65;;;;;;;25.24;27.77;100495.66;5052118;28;20041;-74
2022/05/14 15:37:55;;;;;;;5.35;1.70;;;;;;;25.11;27.20;100504.31;5052091;28;20068;-74
2022/05/14 15:40:21;;;;;;;3.55;1.60;;;;;;;24.81;27.24;100496.69;5052452;28;20063;-75
2022/05/14 15:42:54;;;;;;;3.97;2.20;;;;;;;24.84;27.26;100501.63;5051777;28;20108;-75
2022/05/14 15:45:29;;;;;;;3.13;1.50;;;;;;;24.84;27.23;100498.88;5052130;28;20056;-75
2022/05/14 15:47:58;;;;;;;3.75;2.10;;;;;;;24.88;26.32;100503.56;5051939;28;20033;-74
2022/05/14 15:50:28;;;;;;;4.43;1.63;;;;;;;24.97;26.79;100501.16;5051777;28;20021;-76
2022/05/14 15:52:54;;;;;;;3.97;1.70;;;;;;;24.99;26.68;100498.19;5051606;28;20029;-75
2022/05/14 15:55:24;;;;;;;6.05;1.70;;;;;;;24.97;27.96;100492.16;5050406;28;20052;-74
2022/05/14 15:57:50;;;;;;;5.55;1.65;;;;;;;24.86;29.27;100494.03;5051855;28;20075;-75
2022/05/14 16:00:18;;;;;;;2.85;1.75;;;;;;;24.55;28.11;100493.78;5051759;28;20111;-74
2022/05/14 16:02:44;;;;;;;3.40;1.80;;;;;;;24.79;27.77;100493.44;5051478;28;20040;-75
2022/05/14 16:05:11;;;;;;;3.80;2.40;;;;;;;24.81;28.25;100499.41;5051642;28;20037;-75
2022/05/14 16:07:36;;;;;;;5.90;2.28;;;;;;;24.52;28.15;100488.88;5051668;28;20417;-75
2022/05/14 16:15:53;;;;;;;7.72;3.65;;;;;;;24.67;26.48;100490.88;5051545;28;20029;-76
2022/05/14 16:18:19;;;;;;;4.40;1.67;;;;;;;24.46;27.24;100479.00;5051358;28;20144;-75
2022/05/14 16:20:45;;;;;;;6.40;3.08;;;;;;;24.47;27.32;100480.66;5051368;28;20033;-74
2022/05/14 16:23:11;;;;;;;3.38;2.00;;;;;;;24.47;28.03;100475.19;5051276;28;20040;-75
2022/05/14 16:25:37;;;;;;;4.10;1.98;;;;;;;24.42;28.63;100482.50;5051345;28;20055;-76
2022/05/14 16:28:04;;;;;;;4.97;2.38;;;;;;;24.42;28.68;100480.59;5051438;28;20033;-75